sensor_id;sensor_type;location;lat;lon;timestamp;P1;durP1;ratioP1;P2;durP2;ratioP2
31043;SDS011;17710;52.520;13.352;2023-04-21T00:01:20;18.40;;;5.53;;
31043;SDS011;17710;52.520;13.352;2023-04-21T00:03:46;25.13;;;5.85;;
31043;SDS011;17710;52.520;13.352;2023-04-21T00:06:12;13.85;;;5.70;;
31043;SDS011;17710;52.520;13.352;2023-04-21T00:08:47;19.50;;;5.45;;
31043;SDS011;17710;52.520;13.352;2023-04-21T00:11:14;14.65;;;5.28;;
31043;SDS011;17710;52.520;13.352;2023-04-21T00:13:40;21.27;;;5.97;;
31043;SDS011;17710;52.520;13.352;2023-04-21T00:16:07;20.58;;;5.50;;
31043;SDS011;17710;52.520;13.352;2023-04-21T00:18:33;22.42;;;6.18;;
31043;SDS011;17710;52.520;13.352;2023-04-21T00:21:00;17.92;;;5.47;;
31043;SDS011;17710;52.520;13.352;2023-04-21T00:23:26;18.33;;;6.22;;
31043;SDS011;17710;52.520;13.352;2023-04-21T00:25:54;16.42;;;5.50;;
31043;SDS011;17710;52.520;13.352;2023-04-21T00:28:21;22.13;;;5.65;;
31043;SDS011;17710;52.520;13.352;2023-04-21T00:30:48;16.17;;;5.70;;
31043;SDS011;17710;52.520;13.352;2023-04-21T00:33:15;19.00;;;6.10;;
31043;SDS011;17710;52.520;13.352;2023-04-21T00:35:41;17.27;;;6.18;;
31043;SDS011;17710;52.520;13.352;2023-04-21T00:38:07;15.73;;;6.38;;
31043;SDS011;17710;52.520;13.352;2023-04-21T00:40:34;21.50;;;6.10;;
31043;SDS011;17710;52.520;13.352;2023-04-21T00:43:02;21.38;;;7.55;;
31043;SDS011;17710;52.520;13.352;2023-04-21T00:45:31;13.65;;;6.68;;
31043;SDS011;17710;52.520;13.352;2023-04-21T00:47:57;14.55;;;6.55;;
31043;SDS011;17710;52.520;13.352;2023-04-21T00:50:24;22.63;;;6.65;;
31043;SDS011;17710;52.520;13.352;2023-04-21T00:52:51;20.48;;;7.07;;
31043;SDS011;17710;52.520;13.352;2023-04-21T00:55:18;18.42;;;6.15;;
31043;SDS011;17710;52.520;13.352;2023-04-21T00:57:44;22.30;;;6.97;;
31043;SDS011;17710;52.520;13.352;2023-04-21T01:00:13;20.67;;;6.75;;
31043;SDS011;17710;52.520;13.352;2023-04-21T01:02:40;14.48;;;7.18;;
31043;SDS011;17710;52.520;13.352;2023-04-21T01:05:09;17.65;;;6.70;;
31043;SDS011;17710;52.520;13.352;2023-04-21T01:07:36;16.35;;;6.70;;
31043;SDS011;17710;52.520;13.352;2023-04-21T01:10:04;17.90;;;6.85;;
31043;SDS011;17710;52.520;13.352;2023-04-21T01:12:31;12.57;;;6.18;;
31043;SDS011;17710;52.520;13.352;2023-04-21T01:14:59;21.35;;;7.25;;
31043;SDS011;17710;52.520;13.352;2023-04-21T01:17:27;27.10;;;7.50;;
31043;SDS011;17710;52.520;13.352;2023-04-21T01:19:56;18.70;;;6.80;;
31043;SDS011;17710;52.520;13.352;2023-04-21T01:22:28;14.00;;;6.85;;
31043;SDS011;17710;52.520;13.352;2023-04-21T01:24:57;16.10;;;7.25;;
31043;SDS011;17710;52.520;13.352;2023-04-21T01:27:23;16.48;;;7.38;;
31043;SDS011;17710;52.520;13.352;2023-04-21T01:29:51;15.52;;;7.10;;
31043;SDS011;17710;52.520;13.352;2023-04-21T01:32:18;21.23;;;7.95;;
31043;SDS011;17710;52.520;13.352;2023-04-21T01:34:46;22.88;;;7.90;;
31043;SDS011;17710;52.520;13.352;2023-04-21T01:37:14;21.85;;;8.50;;
31043;SDS011;17710;52.520;13.352;2023-04-21T01:39:44;27.25;;;7.68;;
31043;SDS011;17710;52.520;13.352;2023-04-21T01:42:12;12.65;;;7.25;;
31043;SDS011;17710;52.520;13.352;2023-04-21T01:44:39;11.55;;;7.22;;
31043;SDS011;17710;52.520;13.352;2023-04-21T01:47:06;18.73;;;8.60;;
31043;SDS011;17710;52.520;13.352;2023-04-21T01:49:33;20.02;;;8.77;;
31043;SDS011;17710;52.520;13.352;2023-04-21T01:52:00;18.98;;;7.78;;
31043;SDS011;17710;52.520;13.352;2023-04-21T01:54:27;24.88;;;9.30;;
31043;SDS011;17710;52.520;13.352;2023-04-21T01:56:55;19.00;;;8.15;;
31043;SDS011;17710;52.520;13.352;2023-04-21T01:59:21;19.65;;;8.40;;
31043;SDS011;17710;52.520;13.352;2023-04-21T02:01:48;18.55;;;8.30;;
31043;SDS011;17710;52.520;13.352;2023-04-21T02:04:14;14.68;;;7.95;;
31043;SDS011;17710;52.520;13.352;2023-04-21T02:06:41;17.73;;;8.45;;
31043;SDS011;17710;52.520;13.352;2023-04-21T02:09:07;15.45;;;8.43;;
31043;SDS011;17710;52.520;13.352;2023-04-21T02:11:34;23.00;;;8.57;;
31043;SDS011;17710;52.520;13.352;2023-04-21T02:14:02;18.77;;;8.50;;
31043;SDS011;17710;52.520;13.352;2023-04-21T02:16:28;16.83;;;8.65;;
31043;SDS011;17710;52.520;13.352;2023-04-21T02:18:55;20.95;;;9.00;;
31043;SDS011;17710;52.520;13.352;2023-04-21T02:21:22;20.92;;;8.27;;
31043;SDS011;17710;52.520;13.352;2023-04-21T02:23:49;19.65;;;8.73;;
31043;SDS011;17710;52.520;13.352;2023-04-21T02:26:16;17.83;;;8.90;;
31043;SDS011;17710;52.520;13.352;2023-04-21T02:28:43;15.40;;;8.52;;
31043;SDS011;17710;52.520;13.352;2023-04-21T02:31:11;15.70;;;8.50;;
31043;SDS011;17710;52.520;13.352;2023-04-21T02:33:37;17.73;;;8.38;;
31043;SDS011;17710;52.520;13.352;2023-04-21T02:36:04;17.02;;;8.80;;
31043;SDS011;17710;52.520;13.352;2023-04-21T02:38:31;16.60;;;9.30;;
31043;SDS011;17710;52.520;13.352;2023-04-21T02:40:57;21.15;;;10.38;;
31043;SDS011;17710;52.520;13.352;2023-04-21T02:43:24;24.63;;;10.38;;
31043;SDS011;17710;52.520;13.352;2023-04-21T02:45:50;25.75;;;12.35;;
31043;SDS011;17710;52.520;13.352;2023-04-21T02:48:18;22.73;;;13.18;;
31043;SDS011;17710;52.520;13.352;2023-04-21T02:50:46;34.90;;;14.20;;
31043;SDS011;17710;52.520;13.352;2023-04-21T02:53:13;37.25;;;18.38;;
31043;SDS011;17710;52.520;13.352;2023-04-21T02:55:40;39.05;;;19.58;;
31043;SDS011;17710;52.520;13.352;2023-04-21T02:58:06;37.88;;;20.50;;
31043;SDS011;17710;52.520;13.352;2023-04-21T03:00:33;48.80;;;23.75;;
31043;SDS011;17710;52.520;13.352;2023-04-21T03:02:59;47.60;;;26.20;;
31043;SDS011;17710;52.520;13.352;2023-04-21T03:05:28;53.30;;;26.20;;
31043;SDS011;17710;52.520;13.352;2023-04-21T03:07:54;51.50;;;27.60;;
31043;SDS011;17710;52.520;13.352;2023-04-21T03:10:20;61.63;;;25.13;;
31043;SDS011;17710;52.520;13.352;2023-04-21T03:12:47;39.17;;;22.30;;
31043;SDS011;17710;52.520;13.352;2023-04-21T03:15:14;40.40;;;19.60;;
31043;SDS011;17710;52.520;13.352;2023-04-21T03:17:41;34.50;;;18.35;;
31043;SDS011;17710;52.520;13.352;2023-04-21T03:20:07;34.65;;;16.45;;
31043;SDS011;17710;52.520;13.352;2023-04-21T03:22:37;29.67;;;15.77;;
31043;SDS011;17710;52.520;13.352;2023-04-21T03:25:04;26.35;;;12.80;;
31043;SDS011;17710;52.520;13.352;2023-04-21T03:27:31;25.02;;;12.77;;
31043;SDS011;17710;52.520;13.352;2023-04-21T03:29:57;26.75;;;12.15;;
31043;SDS011;17710;52.520;13.352;2023-04-21T03:32:24;20.42;;;10.75;;
31043;SDS011;17710;52.520;13.352;2023-04-21T03:34:50;19.25;;;10.18;;
31043;SDS011;17710;52.520;13.352;2023-04-21T03:37:17;20.45;;;9.95;;
31043;SDS011;17710;52.520;13.352;2023-04-21T03:39:45;15.68;;;9.82;;
31043;SDS011;17710;52.520;13.352;2023-04-21T03:42:11;18.67;;;9.55;;
31043;SDS011;17710;52.520;13.352;2023-04-21T03:44:37;17.13;;;9.55;;
31043;SDS011;17710;52.520;13.352;2023-04-21T03:47:04;21.70;;;9.10;;
31043;SDS011;17710;52.520;13.352;2023-04-21T03:49:32;19.40;;;8.80;;
31043;SDS011;17710;52.520;13.352;2023-04-21T03:51:59;19.70;;;11.10;;
31043;SDS011;17710;52.520;13.352;2023-04-21T03:54:25;22.90;;;9.75;;
31043;SDS011;17710;52.520;13.352;2023-04-21T03:56:53;16.77;;;9.50;;
31043;SDS011;17710;52.520;13.352;2023-04-21T03:59:19;15.02;;;8.75;;
31043;SDS011;17710;52.520;13.352;2023-04-21T04:01:46;19.33;;;9.95;;
31043;SDS011;17710;52.520;13.352;2023-04-21T04:04:12;21.60;;;9.20;;
31043;SDS011;17710;52.520;13.352;2023-04-21T04:06:39;17.30;;;9.20;;
31043;SDS011;17710;52.520;13.352;2023-04-21T04:09:05;18.08;;;9.23;;
31043;SDS011;17710;52.520;13.352;2023-04-21T04:11:33;17.63;;;9.52;;
31043;SDS011;17710;52.520;13.352;2023-04-21T04:14:00;19.48;;;9.85;;
31043;SDS011;17710;52.520;13.352;2023-04-21T04:16:27;19.42;;;9.43;;
31043;SDS011;17710;52.520;13.352;2023-04-21T04:18:53;17.52;;;9.45;;
31043;SDS011;17710;52.520;13.352;2023-04-21T04:21:20;15.90;;;9.48;;
31043;SDS011;17710;52.520;13.352;2023-04-21T04:23:48;19.40;;;10.02;;
31043;SDS011;17710;52.520;13.352;2023-04-21T04:26:15;17.35;;;9.70;;
31043;SDS011;17710;52.520;13.352;2023-04-21T04:28:42;16.27;;;9.95;;
31043;SDS011;17710;52.520;13.352;2023-04-21T04:31:10;17.45;;;10.50;;
31043;SDS011;17710;52.520;13.352;2023-04-21T04:33:39;17.65;;;9.45;;
31043;SDS011;17710;52.520;13.352;2023-04-21T04:36:06;16.27;;;9.60;;
31043;SDS011;17710;52.520;13.352;2023-04-21T04:38:33;22.88;;;10.43;;
31043;SDS011;17710;52.520;13.352;2023-04-21T04:41:01;19.35;;;10.10;;
31043;SDS011;17710;52.520;13.352;2023-04-21T04:43:28;19.35;;;10.40;;
31043;SDS011;17710;52.520;13.352;2023-04-21T04:45:57;22.88;;;10.15;;
31043;SDS011;17710;52.520;13.352;2023-04-21T04:48:25;19.55;;;10.35;;
31043;SDS011;17710;52.520;13.352;2023-04-21T04:50:51;20.33;;;10.23;;
31043;SDS011;17710;52.520;13.352;2023-04-21T04:53:18;20.52;;;9.90;;
31043;SDS011;17710;52.520;13.352;2023-04-21T04:55:44;19.70;;;10.63;;
31043;SDS011;17710;52.520;13.352;2023-04-21T04:58:11;20.15;;;9.70;;
31043;SDS011;17710;52.520;13.352;2023-04-21T05:00:38;19.40;;;9.93;;
31043;SDS011;17710;52.520;13.352;2023-04-21T05:03:05;17.85;;;10.27;;
31043;SDS011;17710;52.520;13.352;2023-04-21T05:05:32;14.55;;;9.73;;
31043;SDS011;17710;52.520;13.352;2023-04-21T05:07:59;20.08;;;10.15;;
31043;SDS011;17710;52.520;13.352;2023-04-21T05:10:25;15.10;;;9.85;;
31043;SDS011;17710;52.520;13.352;2023-04-21T05:12:52;16.42;;;9.50;;
31043;SDS011;17710;52.520;13.352;2023-04-21T05:15:19;20.10;;;10.50;;
31043;SDS011;17710;52.520;13.352;2023-04-21T05:17:46;16.52;;;9.90;;
31043;SDS011;17710;52.520;13.352;2023-04-21T05:20:13;17.77;;;9.10;;
31043;SDS011;17710;52.520;13.352;2023-04-21T05:22:41;17.10;;;9.80;;
31043;SDS011;17710;52.520;13.352;2023-04-21T05:25:08;16.48;;;9.93;;
31043;SDS011;17710;52.520;13.352;2023-04-21T05:27:36;23.58;;;10.63;;
31043;SDS011;17710;52.520;13.352;2023-04-21T05:30:03;14.70;;;9.80;;
31043;SDS011;17710;52.520;13.352;2023-04-21T05:32:30;20.77;;;9.52;;
31043;SDS011;17710;52.520;13.352;2023-04-21T05:34:56;20.52;;;10.45;;
31043;SDS011;17710;52.520;13.352;2023-04-21T05:37:23;23.00;;;10.15;;
31043;SDS011;17710;52.520;13.352;2023-04-21T05:39:51;21.15;;;9.40;;
31043;SDS011;17710;52.520;13.352;2023-04-21T05:42:18;14.10;;;10.27;;
31043;SDS011;17710;52.520;13.352;2023-04-21T05:44:45;16.35;;;9.95;;
31043;SDS011;17710;52.520;13.352;2023-04-21T05:47:12;15.77;;;10.13;;
31043;SDS011;17710;52.520;13.352;2023-04-21T05:49:38;20.48;;;10.57;;
31043;SDS011;17710;52.520;13.352;2023-04-21T05:52:07;18.20;;;10.07;;
31043;SDS011;17710;52.520;13.352;2023-04-21T05:54:34;22.13;;;11.88;;
31043;SDS011;17710;52.520;13.352;2023-04-21T05:57:03;18.05;;;9.73;;
31043;SDS011;17710;52.520;13.352;2023-04-21T05:59:32;15.00;;;9.57;;
31043;SDS011;17710;52.520;13.352;2023-04-21T06:01:58;21.48;;;10.30;;
31043;SDS011;17710;52.520;13.352;2023-04-21T06:04:25;15.30;;;9.68;;
31043;SDS011;17710;52.520;13.352;2023-04-21T06:06:52;17.27;;;10.00;;
31043;SDS011;17710;52.520;13.352;2023-04-21T06:09:18;22.10;;;10.27;;
31043;SDS011;17710;52.520;13.352;2023-04-21T06:11:45;22.05;;;10.90;;
31043;SDS011;17710;52.520;13.352;2023-04-21T06:14:12;18.70;;;9.40;;
31043;SDS011;17710;52.520;13.352;2023-04-21T06:16:39;18.52;;;10.40;;
31043;SDS011;17710;52.520;13.352;2023-04-21T06:19:06;17.90;;;9.65;;
31043;SDS011;17710;52.520;13.352;2023-04-21T06:21:32;20.55;;;10.13;;
31043;SDS011;17710;52.520;13.352;2023-04-21T06:24:01;19.30;;;9.85;;
31043;SDS011;17710;52.520;13.352;2023-04-21T06:26:28;18.83;;;10.05;;
31043;SDS011;17710;52.520;13.352;2023-04-21T06:28:55;21.92;;;9.85;;
31043;SDS011;17710;52.520;13.352;2023-04-21T06:31:23;21.63;;;10.50;;
31043;SDS011;17710;52.520;13.352;2023-04-21T06:33:49;17.65;;;10.63;;
31043;SDS011;17710;52.520;13.352;2023-04-21T06:36:16;18.95;;;9.45;;
31043;SDS011;17710;52.520;13.352;2023-04-21T06:38:42;24.25;;;10.45;;
31043;SDS011;17710;52.520;13.352;2023-04-21T06:41:09;16.85;;;9.38;;
31043;SDS011;17710;52.520;13.352;2023-04-21T06:43:35;17.63;;;10.13;;
31043;SDS011;17710;52.520;13.352;2023-04-21T06:46:05;18.85;;;9.90;;
31043;SDS011;17710;52.520;13.352;2023-04-21T06:48:57;21.88;;;10.27;;
31043;SDS011;17710;52.520;13.352;2023-04-21T06:51:23;15.90;;;9.98;;
31043;SDS011;17710;52.520;13.352;2023-04-21T06:53:50;15.18;;;9.85;;
31043;SDS011;17710;52.520;13.352;2023-04-21T06:56:17;16.58;;;9.70;;
31043;SDS011;17710;52.520;13.352;2023-04-21T06:58:43;15.15;;;9.32;;
31043;SDS011;17710;52.520;13.352;2023-04-21T07:01:10;21.38;;;10.60;;
31043;SDS011;17710;52.520;13.352;2023-04-21T07:03:37;18.10;;;9.68;;
31043;SDS011;17710;52.520;13.352;2023-04-21T07:06:06;14.90;;;8.73;;
31043;SDS011;17710;52.520;13.352;2023-04-21T07:08:33;15.15;;;9.00;;
31043;SDS011;17710;52.520;13.352;2023-04-21T07:10:59;21.00;;;9.55;;
31043;SDS011;17710;52.520;13.352;2023-04-21T07:13:26;22.63;;;9.43;;
31043;SDS011;17710;52.520;13.352;2023-04-21T07:15:52;18.95;;;9.45;;
31043;SDS011;17710;52.520;13.352;2023-04-21T07:18:19;22.77;;;9.45;;
31043;SDS011;17710;52.520;13.352;2023-04-21T07:20:45;16.67;;;9.00;;
31043;SDS011;17710;52.520;13.352;2023-04-21T07:23:13;18.33;;;9.27;;
31043;SDS011;17710;52.520;13.352;2023-04-21T07:25:40;19.85;;;9.43;;
31043;SDS011;17710;52.520;13.352;2023-04-21T07:28:06;19.08;;;9.27;;
31043;SDS011;17710;52.520;13.352;2023-04-21T07:30:33;16.25;;;9.48;;
31043;SDS011;17710;52.520;13.352;2023-04-21T07:33:00;14.68;;;8.90;;
31043;SDS011;17710;52.520;13.352;2023-04-21T07:35:26;18.50;;;8.75;;
31043;SDS011;17710;52.520;13.352;2023-04-21T07:37:53;17.63;;;8.95;;
31043;SDS011;17710;52.520;13.352;2023-04-21T07:40:21;15.73;;;8.63;;
31043;SDS011;17710;52.520;13.352;2023-04-21T07:42:48;18.30;;;8.93;;
31043;SDS011;17710;52.520;13.352;2023-04-21T07:45:14;24.00;;;9.43;;
31043;SDS011;17710;52.520;13.352;2023-04-21T07:47:41;21.35;;;9.35;;
31043;SDS011;17710;52.520;13.352;2023-04-21T07:50:18;15.82;;;8.75;;
31043;SDS011;17710;52.520;13.352;2023-04-21T07:52:45;20.23;;;8.90;;
31043;SDS011;17710;52.520;13.352;2023-04-21T07:55:12;18.77;;;9.27;;
31043;SDS011;17710;52.520;13.352;2023-04-21T07:57:40;24.42;;;10.20;;
31043;SDS011;17710;52.520;13.352;2023-04-21T08:00:07;16.63;;;9.18;;
31043;SDS011;17710;52.520;13.352;2023-04-21T08:02:34;16.45;;;9.48;;
31043;SDS011;17710;52.520;13.352;2023-04-21T08:05:01;17.80;;;9.07;;
31043;SDS011;17710;52.520;13.352;2023-04-21T08:07:27;19.30;;;8.85;;
31043;SDS011;17710;52.520;13.352;2023-04-21T08:09:54;21.42;;;10.10;;
31043;SDS011;17710;52.520;13.352;2023-04-21T08:12:21;19.25;;;9.75;;
31043;SDS011;17710;52.520;13.352;2023-04-21T08:14:48;12.90;;;8.90;;
31043;SDS011;17710;52.520;13.352;2023-04-21T08:17:15;11.88;;;7.95;;
31043;SDS011;17710;52.520;13.352;2023-04-21T08:19:41;21.50;;;9.43;;
31043;SDS011;17710;52.520;13.352;2023-04-21T08:22:08;18.50;;;9.27;;
31043;SDS011;17710;52.520;13.352;2023-04-21T08:24:34;16.35;;;8.68;;
31043;SDS011;17710;52.520;13.352;2023-04-21T08:27:01;21.25;;;8.60;;
31043;SDS011;17710;52.520;13.352;2023-04-21T08:29:27;15.73;;;8.52;;
31043;SDS011;17710;52.520;13.352;2023-04-21T08:31:55;15.35;;;8.18;;
31043;SDS011;17710;52.520;13.352;2023-04-21T08:34:21;17.17;;;8.05;;
31043;SDS011;17710;52.520;13.352;2023-04-21T08:36:48;14.65;;;8.38;;
31043;SDS011;17710;52.520;13.352;2023-04-21T08:39:14;12.80;;;8.15;;
31043;SDS011;17710;52.520;13.352;2023-04-21T08:41:41;11.73;;;7.07;;
31043;SDS011;17710;52.520;13.352;2023-04-21T08:44:07;18.17;;;8.43;;
31043;SDS011;17710;52.520;13.352;2023-04-21T08:46:35;13.32;;;8.23;;
31043;SDS011;17710;52.520;13.352;2023-04-21T08:49:03;18.38;;;8.10;;
31043;SDS011;17710;52.520;13.352;2023-04-21T08:51:30;24.20;;;9.05;;
31043;SDS011;17710;52.520;13.352;2023-04-21T08:53:57;13.98;;;7.72;;
31043;SDS011;17710;52.520;13.352;2023-04-21T08:56:24;16.02;;;8.20;;
31043;SDS011;17710;52.520;13.352;2023-04-21T08:58:54;16.88;;;8.13;;
31043;SDS011;17710;52.520;13.352;2023-04-21T09:01:21;12.77;;;7.97;;
31043;SDS011;17710;52.520;13.352;2023-04-21T09:03:47;13.52;;;7.68;;
31043;SDS011;17710;52.520;13.352;2023-04-21T09:06:15;16.20;;;8.02;;
31043;SDS011;17710;52.520;13.352;2023-04-21T09:08:42;17.02;;;8.13;;
31043;SDS011;17710;52.520;13.352;2023-04-21T09:11:12;13.35;;;7.90;;
31043;SDS011;17710;52.520;13.352;2023-04-21T09:13:39;19.45;;;7.80;;
31043;SDS011;17710;52.520;13.352;2023-04-21T09:16:13;15.40;;;7.93;;
31043;SDS011;17710;52.520;13.352;2023-04-21T09:18:41;22.08;;;13.25;;
31043;SDS011;17710;52.520;13.352;2023-04-21T09:21:10;14.13;;;7.90;;
31043;SDS011;17710;52.520;13.352;2023-04-21T09:23:42;14.20;;;7.80;;
31043;SDS011;17710;52.520;13.352;2023-04-21T09:26:10;12.88;;;7.70;;
31043;SDS011;17710;52.520;13.352;2023-04-21T09:28:39;16.13;;;8.05;;
31043;SDS011;17710;52.520;13.352;2023-04-21T09:31:11;16.70;;;7.25;;
31043;SDS011;17710;52.520;13.352;2023-04-21T09:33:43;12.35;;;7.25;;
31043;SDS011;17710;52.520;13.352;2023-04-21T09:36:12;17.45;;;8.05;;
31043;SDS011;17710;52.520;13.352;2023-04-21T09:38:47;12.43;;;6.43;;
31043;SDS011;17710;52.520;13.352;2023-04-21T09:41:23;15.85;;;7.00;;
31043;SDS011;17710;52.520;13.352;2023-04-21T09:43:50;15.15;;;7.30;;
31043;SDS011;17710;52.520;13.352;2023-04-21T09:46:17;15.20;;;6.60;;
31043;SDS011;17710;52.520;13.352;2023-04-21T09:48:45;13.02;;;6.60;;
31043;SDS011;17710;52.520;13.352;2023-04-21T09:51:13;13.32;;;7.13;;
31043;SDS011;17710;52.520;13.352;2023-04-21T09:53:41;10.95;;;6.65;;
31043;SDS011;17710;52.520;13.352;2023-04-21T09:56:11;10.82;;;6.88;;
31043;SDS011;17710;52.520;13.352;2023-04-21T09:58:39;14.18;;;7.15;;
31043;SDS011;17710;52.520;13.352;2023-04-21T10:01:09;12.07;;;6.80;;
31043;SDS011;17710;52.520;13.352;2023-04-21T10:03:37;13.50;;;6.78;;
31043;SDS011;17710;52.520;13.352;2023-04-21T10:06:04;11.75;;;6.78;;
31043;SDS011;17710;52.520;13.352;2023-04-21T10:08:31;17.45;;;6.70;;
31043;SDS011;17710;52.520;13.352;2023-04-21T10:10:58;17.50;;;7.07;;
31043;SDS011;17710;52.520;13.352;2023-04-21T10:13:27;12.77;;;7.18;;
31043;SDS011;17710;52.520;13.352;2023-04-21T10:16:00;13.18;;;6.90;;
31043;SDS011;17710;52.520;13.352;2023-04-21T10:18:28;17.27;;;6.85;;
31043;SDS011;17710;52.520;13.352;2023-04-21T10:21:22;12.52;;;6.45;;
31043;SDS011;17710;52.520;13.352;2023-04-21T10:24:10;10.80;;;6.13;;
31043;SDS011;17710;52.520;13.352;2023-04-21T10:26:39;10.73;;;6.68;;
31043;SDS011;17710;52.520;13.352;2023-04-21T10:29:07;13.88;;;6.47;;
31043;SDS011;17710;52.520;13.352;2023-04-21T10:31:34;11.85;;;5.85;;
31043;SDS011;17710;52.520;13.352;2023-04-21T10:34:12;12.57;;;6.30;;
31043;SDS011;17710;52.520;13.352;2023-04-21T10:36:48;12.40;;;6.70;;
31043;SDS011;17710;52.520;13.352;2023-04-21T10:39:26;12.80;;;6.00;;
31043;SDS011;17710;52.520;13.352;2023-04-21T10:41:54;14.60;;;6.03;;
31043;SDS011;17710;52.520;13.352;2023-04-21T10:44:22;13.43;;;5.30;;
31043;SDS011;17710;52.520;13.352;2023-04-21T10:46:49;13.23;;;5.47;;
31043;SDS011;17710;52.520;13.352;2023-04-21T10:49:20;15.85;;;5.68;;
31043;SDS011;17710;52.520;13.352;2023-04-21T10:52:01;11.25;;;5.95;;
31043;SDS011;17710;52.520;13.352;2023-04-21T10:54:31;14.25;;;6.40;;
31043;SDS011;17710;52.520;13.352;2023-04-21T10:57:06;12.85;;;5.60;;
31043;SDS011;17710;52.520;13.352;2023-04-21T10:59:35;11.25;;;5.53;;
31043;SDS011;17710;52.520;13.352;2023-04-21T11:02:02;10.80;;;4.85;;
31043;SDS011;17710;52.520;13.352;2023-04-21T11:04:28;10.05;;;5.80;;
31043;SDS011;17710;52.520;13.352;2023-04-21T11:07:05;5.95;;;5.00;;
31043;SDS011;17710;52.520;13.352;2023-04-21T11:11:59;15.18;;;6.13;;
31043;SDS011;17710;52.520;13.352;2023-04-21T11:14:26;11.13;;;6.13;;
31043;SDS011;17710;52.520;13.352;2023-04-21T11:16:55;12.68;;;6.07;;
31043;SDS011;17710;52.520;13.352;2023-04-21T11:19:21;10.35;;;5.78;;
31043;SDS011;17710;52.520;13.352;2023-04-21T11:21:50;7.13;;;4.93;;
31043;SDS011;17710;52.520;13.352;2023-04-21T11:24:18;8.98;;;5.68;;
31043;SDS011;17710;52.520;13.352;2023-04-21T11:26:48;15.95;;;6.15;;
31043;SDS011;17710;52.520;13.352;2023-04-21T11:29:15;22.33;;;5.75;;
31043;SDS011;17710;52.520;13.352;2023-04-21T11:31:42;10.30;;;6.15;;
31043;SDS011;17710;52.520;13.352;2023-04-21T11:34:11;9.35;;;5.10;;
31043;SDS011;17710;52.520;13.352;2023-04-21T11:36:40;10.52;;;5.50;;
31043;SDS011;17710;52.520;13.352;2023-04-21T11:39:09;8.05;;;4.80;;
31043;SDS011;17710;52.520;13.352;2023-04-21T11:41:38;9.90;;;5.45;;
31043;SDS011;17710;52.520;13.352;2023-04-21T11:44:05;13.98;;;5.38;;
31043;SDS011;17710;52.520;13.352;2023-04-21T11:46:31;11.27;;;5.90;;
31043;SDS011;17710;52.520;13.352;2023-04-21T11:48:58;9.32;;;5.68;;
31043;SDS011;17710;52.520;13.352;2023-04-21T11:51:27;12.80;;;5.55;;
31043;SDS011;17710;52.520;13.352;2023-04-21T11:53:57;14.82;;;5.75;;
31043;SDS011;17710;52.520;13.352;2023-04-21T11:56:24;9.60;;;5.10;;
31043;SDS011;17710;52.520;13.352;2023-04-21T11:58:51;12.25;;;5.20;;
31043;SDS011;17710;52.520;13.352;2023-04-21T12:01:18;9.50;;;5.15;;
31043;SDS011;17710;52.520;13.352;2023-04-21T12:03:51;16.65;;;5.88;;
31043;SDS011;17710;52.520;13.352;2023-04-21T12:06:19;11.45;;;5.35;;
31043;SDS011;17710;52.520;13.352;2023-04-21T12:08:47;8.60;;;5.43;;
31043;SDS011;17710;52.520;13.352;2023-04-21T12:11:19;12.23;;;5.68;;
31043;SDS011;17710;52.520;13.352;2023-04-21T12:13:45;11.25;;;5.00;;
31043;SDS011;17710;52.520;13.352;2023-04-21T12:16:12;9.95;;;5.03;;
31043;SDS011;17710;52.520;13.352;2023-04-21T12:18:38;10.02;;;6.13;;
31043;SDS011;17710;52.520;13.352;2023-04-21T12:21:05;9.95;;;5.68;;
31043;SDS011;17710;52.520;13.352;2023-04-21T12:23:31;8.23;;;5.05;;
31043;SDS011;17710;52.520;13.352;2023-04-21T12:25:59;9.05;;;5.00;;
31043;SDS011;17710;52.520;13.352;2023-04-21T12:28:25;10.57;;;5.55;;
31043;SDS011;17710;52.520;13.352;2023-04-21T12:30:52;12.98;;;5.80;;
31043;SDS011;17710;52.520;13.352;2023-04-21T12:33:18;8.00;;;5.30;;
31043;SDS011;17710;52.520;13.352;2023-04-21T12:35:44;12.75;;;5.60;;
31043;SDS011;17710;52.520;13.352;2023-04-21T12:38:11;14.57;;;5.78;;
31043;SDS011;17710;52.520;13.352;2023-04-21T12:40:43;12.68;;;5.57;;
31043;SDS011;17710;52.520;13.352;2023-04-21T12:43:11;9.68;;;5.53;;
31043;SDS011;17710;52.520;13.352;2023-04-21T12:45:37;7.55;;;5.25;;
31043;SDS011;17710;52.520;13.352;2023-04-21T12:48:04;9.07;;;5.80;;
31043;SDS011;17710;52.520;13.352;2023-04-21T12:50:31;10.80;;;5.15;;
31043;SDS011;17710;52.520;13.352;2023-04-21T12:52:57;7.60;;;5.07;;
31043;SDS011;17710;52.520;13.352;2023-04-21T12:55:23;10.15;;;4.97;;
31043;SDS011;17710;52.520;13.352;2023-04-21T12:57:50;10.88;;;5.47;;
31043;SDS011;17710;52.520;13.352;2023-04-21T13:00:18;7.43;;;5.03;;
31043;SDS011;17710;52.520;13.352;2023-04-21T13:02:46;8.15;;;5.50;;
31043;SDS011;17710;52.520;13.352;2023-04-21T13:05:12;8.27;;;4.80;;
31043;SDS011;17710;52.520;13.352;2023-04-21T13:07:39;10.32;;;5.32;;
31043;SDS011;17710;52.520;13.352;2023-04-21T13:10:06;7.22;;;4.65;;
31043;SDS011;17710;52.520;13.352;2023-04-21T13:12:33;9.98;;;4.68;;
31043;SDS011;17710;52.520;13.352;2023-04-21T13:14:59;8.82;;;4.22;;
31043;SDS011;17710;52.520;13.352;2023-04-21T13:17:29;8.75;;;4.80;;
31043;SDS011;17710;52.520;13.352;2023-04-21T13:19:56;7.63;;;4.50;;
31043;SDS011;17710;52.520;13.352;2023-04-21T13:22:23;7.03;;;4.85;;
31043;SDS011;17710;52.520;13.352;2023-04-21T13:24:49;9.38;;;4.32;;
31043;SDS011;17710;52.520;13.352;2023-04-21T13:27:16;9.07;;;4.55;;
31043;SDS011;17710;52.520;13.352;2023-04-21T13:29:42;8.52;;;4.45;;
31043;SDS011;17710;52.520;13.352;2023-04-21T13:32:09;9.48;;;4.90;;
31043;SDS011;17710;52.520;13.352;2023-04-21T13:34:37;6.13;;;4.47;;
31043;SDS011;17710;52.520;13.352;2023-04-21T13:37:03;7.20;;;5.55;;
31043;SDS011;17710;52.520;13.352;2023-04-21T13:39:30;17.77;;;5.38;;
31043;SDS011;17710;52.520;13.352;2023-04-21T13:41:57;13.27;;;5.88;;
31043;SDS011;17710;52.520;13.352;2023-04-21T13:44:24;10.48;;;4.65;;
31043;SDS011;17710;52.520;13.352;2023-04-21T13:46:50;5.60;;;4.35;;
31043;SDS011;17710;52.520;13.352;2023-04-21T13:49:17;7.15;;;4.63;;
31043;SDS011;17710;52.520;13.352;2023-04-21T13:51:46;6.78;;;4.20;;
31043;SDS011;17710;52.520;13.352;2023-04-21T13:54:12;8.30;;;4.25;;
31043;SDS011;17710;52.520;13.352;2023-04-21T13:56:39;12.80;;;4.60;;
31043;SDS011;17710;52.520;13.352;2023-04-21T13:59:05;6.70;;;4.70;;
31043;SDS011;17710;52.520;13.352;2023-04-21T14:01:34;6.22;;;4.20;;
31043;SDS011;17710;52.520;13.352;2023-04-21T14:04:01;9.90;;;4.78;;
31043;SDS011;17710;52.520;13.352;2023-04-21T14:06:27;7.40;;;4.93;;
31043;SDS011;17710;52.520;13.352;2023-04-21T14:08:56;9.13;;;4.32;;
31043;SDS011;17710;52.520;13.352;2023-04-21T14:11:22;6.38;;;4.50;;
31043;SDS011;17710;52.520;13.352;2023-04-21T14:13:49;6.68;;;4.57;;
31043;SDS011;17710;52.520;13.352;2023-04-21T14:16:15;6.38;;;4.65;;
31043;SDS011;17710;52.520;13.352;2023-04-21T14:18:42;5.82;;;4.30;;
31043;SDS011;17710;52.520;13.352;2023-04-21T14:21:10;8.52;;;4.75;;
31043;SDS011;17710;52.520;13.352;2023-04-21T14:23:36;9.52;;;4.30;;
31043;SDS011;17710;52.520;13.352;2023-04-21T14:26:04;6.78;;;4.55;;